Time;durP1;ratioP1;P1;durP2;ratioP2;P2;SDS_P1;SDS_P2;PMS_P1;PMS_P2;Temp;Humidity;BMP_temperature;BMP_pressure;BME280_temperature;BME280_humidity;BME280_pressure;Samples;Min_cycle;Max_cycle;Signal;HPM_P1;HPM_P2
2022/05/26 00:02:20;;;;;;;8.68;5.63;;;13.60;99.90;;;;;;5016656;28;20048;-72
2022/05/26 00:04:46;;;;;;;8.98;6.03;;;13.50;99.90;;;;;;5034399;28;20135;-72
2022/05/26 00:07:11;;;;;;;8.25;5.82;;;13.50;99.90;;;;;;5033392;28;20390;-71
2022/05/26 00:09:37;;;;;;;8.98;5.90;;;13.50;99.90;;;;;;5032569;28;20481;-71
2022/05/26 00:12:04;;;;;;;8.70;6.32;;;13.50;99.90;;;;;;5033543;28;20060;-72
2022/05/26 00:14:30;;;;;;;11.55;6.35;;;13.50;99.90;;;;;;5032522;28;20050;-71
2022/05/26 00:16:56;;;;;;;9.27;5.97;;;13.60;99.90;;;;;;5032732;28;20060;-71
2022/05/26 00:19:22;;;;;;;9.10;5.90;;;13.60;99.90;;;;;;5033565;28;20049;-71
2022/05/26 00:36:37;;;;;;;8.70;5.45;;;13.30;99.90;;;;;;5239859;22;20458;-73
2022/05/26 00:39:18;;;;;;;8.90;5.93;;;13.50;99.90;;;;;;4960809;28;20085;-82
2022/05/26 00:41:48;;;;;;;9.38;5.78;;;13.60;99.90;;;;;;4992299;28;20042;-81
2022/05/26 00:44:15;;;;;;;12.43;6.28;;;13.50;99.90;;;;;;4977323;28;20058;-82
2022/05/26 00:46:51;;;;;;;12.35;6.63;;;13.50;99.90;;;;;;4960590;28;20062;-82
2022/05/26 00:49:23;;;;;;;9.70;5.03;;;13.50;99.90;;;;;;4977535;28;20046;-81
2022/05/26 00:51:49;;;;;;;11.35;5.88;;;13.50;99.90;;;;;;4993287;28;20053;-81
2022/05/26 00:54:22;;;;;;;11.18;4.90;;;13.50;99.90;;;;;;4976612;28;20054;-82
2022/05/26 00:56:54;;;;;;;10.73;5.25;;;13.50;99.90;;;;;;4977101;28;20491;-82
2022/05/26 00:59:36;;;;;;;10.43;5.73;;;13.50;99.90;;;;;;4993722;28;20047;-82
2022/05/26 01:02:02;;;;;;;9.10;5.18;;;13.50;99.90;;;;;;4977136;28;20073;-82
2022/05/26 01:04:35;;;;;;;13.05;5.82;;;13.50;99.90;;;;;;4977103;28;20042;-83
2022/05/26 01:07:17;;;;;;;9.93;5.47;;;13.50;99.90;;;;;;4978643;28;20391;-83
2022/05/26 01:09:43;;;;;;;13.77;6.28;;;13.60;99.90;;;;;;4997082;28;20133;-83
2022/05/26 01:12:09;;;;;;;13.48;6.40;;;13.40;99.90;;;;;;4980136;28;20126;-83
2022/05/26 01:15:03;;;;;;;13.95;6.78;;;13.40;99.90;;;;;;4980129;28;20046;-83
2022/05/26 01:17:34;;;;;;;12.40;5.70;;;13.40;99.90;;;;;;4978817;28;20054;-81
2022/05/26 01:20:24;;;;;;;12.15;6.82;;;13.40;99.90;;;;;;4996287;28;20050;-80
2022/05/26 01:23:28;;;;;;;17.95;6.30;;;13.40;99.90;;;;;;4980124;28;20054;-81
2022/05/26 01:26:31;;;;;;;12.90;5.75;;;13.40;99.90;;;;;;4979855;28;20490;-82
2022/05/26 01:29:15;;;;;;;15.32;6.05;;;13.40;99.90;;;;;;4997039;28;20066;-80
2022/05/26 01:32:11;;;;;;;18.77;6.20;;;13.40;99.90;;;;;;4980333;28;20053;-83
2022/05/26 01:35:07;;;;;;;19.45;7.50;;;13.40;99.90;;;;;;4980114;28;20050;-81
2022/05/26 01:37:39;;;;;;;15.90;6.68;;;13.40;99.90;;;;;;4980580;28;20455;-82
2022/05/26 01:40:13;;;;;;;17.95;6.65;;;13.40;99.90;;;;;;4980580;28;20046;-81
2022/05/26 01:42:52;;;;;;;15.50;6.15;;;13.40;99.90;;;;;;4980637;28;20043;-80
2022/05/26 01:45:28;;;;;;;17.73;7.18;;;13.40;99.90;;;;;;4980546;28;20101;-80
2022/05/26 01:48:19;;;;;;;19.80;6.68;;;13.40;99.90;;;;;;4996631;28;20113;-80
2022/05/26 01:50:52;;;;;;;19.55;7.18;;;13.40;99.90;;;;;;4996242;28;20065;-80
2022/05/26 01:53:24;;;;;;;16.80;6.95;;;13.40;99.90;;;;;;4996106;28;20042;-78
2022/05/26 01:55:57;;;;;;;22.83;7.45;;;13.50;99.90;;;;;;4979919;28;20068;-82
2022/05/26 01:58:35;;;;;;;17.10;6.85;;;13.50;99.90;;;;;;4980058;28;20086;-79
2022/05/26 02:01:07;;;;;;;16.70;6.97;;;13.40;99.90;;;;;;4996423;28;20379;-77
2022/05/26 02:03:36;;;;;;;16.10;6.68;;;13.50;99.90;;;;;;4995558;28;20130;-78
2022/05/26 02:06:10;;;;;;;19.15;6.88;;;13.50;99.90;;;;;;4996374;28;20054;-77
2022/05/26 02:08:44;;;;;;;18.98;7.43;;;13.50;99.90;;;;;;4995613;28;20112;-77
2022/05/26 02:11:17;;;;;;;18.35;6.60;;;13.50;99.90;;;;;;4979757;28;20046;-78
2022/05/26 02:13:57;;;;;;;19.02;5.80;;;13.50;99.90;;;;;;4995575;28;20089;-85
2022/05/26 02:16:49;;;;;;;16.33;5.57;;;13.50;99.90;;;;;;4979362;28;20557;-76
2022/05/26 02:19:39;;;;;;;17.80;5.68;;;13.50;99.90;;;;;;4978064;28;20050;-78
2022/05/26 02:22:12;;;;;;;13.88;5.35;;;13.50;99.90;;;;;;4995677;28;20515;-77
2022/05/26 02:24:52;;;;;;;;;;;13.50;99.90;;;;;;4995782;28;20483;-78
2022/05/26 02:27:18;;;;;;;15.75;5.60;;;13.50;99.90;;;;;;4995085;28;20032;-78
2022/05/26 02:29:52;;;;;;;16.40;5.55;;;13.50;99.90;;;;;;4995553;28;20137;-77
2022/05/26 02:32:43;;;;;;;21.63;5.93;;;13.50;99.90;;;;;;4981124;28;20084;-76
2022/05/26 02:35:14;;;;;;;20.42;6.05;;;13.40;99.90;;;;;;4995817;28;20046;-76
2022/05/26 02:37:42;;;;;;;16.17;6.15;;;13.50;99.90;;;;;;4996022;28;20054;-75
2022/05/26 02:40:10;;;;;;;23.17;5.82;;;13.50;99.90;;;;;;4978727;28;20474;-76
2022/05/26 02:42:43;;;;;;;21.45;6.22;;;13.40;99.90;;;;;;4979056;28;20108;-76
2022/05/26 02:45:08;;;;;;;;;;;13.40;99.90;;;;;;4995315;28;20050;-77
2022/05/26 02:47:50;;;;;;;23.45;6.55;;;13.40;99.90;;;;;;4994794;28;19922;-77
2022/05/26 02:50:34;;;;;;;16.63;5.47;;;13.70;99.90;;;;;;4995256;28;20141;-77
2022/05/26 02:53:22;;;;;;;18.15;5.57;;;13.40;99.90;;;;;;4978645;28;20042;-76
2022/05/26 02:56:10;;;;;;;15.13;6.13;;;13.50;99.90;;;;;;4995102;28;20042;-76
2022/05/26 02:59:04;;;;;;;22.25;6.10;;;13.50;99.90;;;;;;4978469;28;20096;-76
2022/05/26 03:01:47;;;;;;;14.35;5.05;;;13.50;99.90;;;;;;4992072;28;20058;-76
2022/05/26 03:04:35;;;;;;;13.33;4.93;;;13.50;99.90;;;;;;4995057;28;20058;-76
2022/05/26 03:07:10;;;;;;;16.45;5.18;;;13.50;99.90;;;;;;4978994;28;20050;-76
2022/05/26 03:09:38;;;;;;;16.65;5.10;;;13.50;99.90;;;;;;4994351;28;20133;-76
2022/05/26 03:12:04;;;;;;;19.55;4.80;;;13.50;99.90;;;;;;4978255;28;20042;-77
2022/05/26 03:14:30;;;;;;;19.20;4.85;;;13.60;99.90;;;;;;4978140;28;20475;-76
2022/05/26 03:16:56;;;;;;;19.00;4.32;;;13.60;99.90;;;;;;4962067;28;20065;-76
2022/05/26 03:19:21;;;;;;;15.93;4.70;;;13.50;99.90;;;;;;4978120;28;20046;-77
2022/05/26 03:21:48;;;;;;;24.58;4.40;;;13.50;99.90;;;;;;4962104;28;20096;-77
2022/05/26 03:24:14;;;;;;;21.65;4.43;;;13.50;99.90;;;;;;4994253;28;20522;-76
2022/05/26 03:26:40;;;;;;;14.00;4.40;;;13.50;99.90;;;;;;4978347;28;20065;-77
2022/05/26 03:29:06;;;;;;;12.05;4.05;;;13.50;99.90;;;;;;4961600;28;20066;-76
2022/05/26 03:31:33;;;;;;;16.90;4.00;;;13.50;99.90;;;;;;4977997;28;20054;-77
2022/05/26 03:42:12;;;;;;;15.63;3.60;;;13.40;99.90;;;;;;4966606;28;20050;-76
2022/05/26 03:44:38;;;;;;;12.63;3.85;;;13.40;99.90;;;;;;4993708;28;20068;-76
2022/05/26 03:47:05;;;;;;;13.38;3.40;;;13.40;99.90;;;;;;4994150;28;20042;-77
2022/05/26 03:49:30;;;;;;;17.83;4.22;;;13.40;99.90;;;;;;4977574;28;20046;-77
2022/05/26 03:51:57;;;;;;;15.60;3.58;;;13.40;99.90;;;;;;4978434;28;20057;-78
2022/05/26 03:54:26;;;;;;;19.25;4.13;;;13.40;99.90;;;;;;4993781;28;20050;-77
2022/05/26 03:56:51;;;;;;;12.23;3.35;;;13.40;99.90;;;;;;4977907;28;20050;-76
2022/05/26 03:59:17;;;;;;;13.77;3.70;;;13.50;99.90;;;;;;4961479;28;20430;-77
2022/05/26 04:01:43;;;;;;;12.02;2.90;;;13.40;99.90;;;;;;4994596;28;20042;-76
2022/05/26 04:04:09;;;;;;;13.90;4.13;;;13.40;99.90;;;;;;4994586;28;20042;-76
2022/05/26 04:06:36;;;;;;;13.10;3.58;;;13.40;99.90;;;;;;4994406;28;20130;-76
2022/05/26 04:09:03;;;;;;;14.55;3.78;;;13.40;99.90;;;;;;4994270;28;20108;-76
2022/05/26 04:11:29;;;;;;;14.77;3.10;;;13.40;99.90;;;;;;4993490;28;20046;-76
2022/05/26 04:13:54;;;;;;;13.23;3.97;;;13.30;99.90;;;;;;4977978;28;20360;-77
2022/05/26 04:16:21;;;;;;;15.63;2.83;;;13.40;99.90;;;;;;4977246;28;20050;-76
2022/05/26 04:18:47;;;;;;;13.95;3.25;;;13.30;99.90;;;;;;4977300;28;20061;-76
2022/05/26 04:21:14;;;;;;;12.90;3.03;;;13.30;99.90;;;;;;4993579;28;20050;-76
2022/05/26 04:23:40;;;;;;;10.25;2.72;;;13.30;99.90;;;;;;4993578;28;20082;-75
2022/05/26 04:26:08;;;;;;;9.95;2.42;;;13.30;99.90;;;;;;4993307;28;20050;-76
2022/05/26 04:28:34;;;;;;;9.55;2.20;;;13.30;99.90;;;;;;4993963;28;20042;-75
2022/05/26 04:31:01;;;;;;;9.30;2.00;;;13.40;99.90;;;;;;4993255;28;20042;-76
2022/05/26 04:33:26;;;;;;;12.15;2.65;;;13.40;99.90;;;;;;4977174;28;20058;-76
2022/05/26 04:35:53;;;;;;;9.65;2.40;;;13.50;99.90;;;;;;4993825;28;20054;-80
2022/05/26 04:38:19;;;;;;;7.90;2.00;;;13.30;99.90;;;;;;4993090;28;20101;-75
2022/05/26 04:40:46;;;;;;;10.35;1.95;;;13.50;99.90;;;;;;4993165;28;20096;-75
2022/05/26 04:43:13;;;;;;;9.45;2.10;;;13.30;99.90;;;;;;4997060;28;20456;-76
2022/05/26 04:45:39;;;;;;;7.15;1.92;;;13.30;99.90;;;;;;4981110;28;20057;-75
2022/05/26 04:48:05;;;;;;;10.23;2.30;;;13.30;99.90;;;;;;4997917;28;20553;-75
2022/05/26 04:50:31;;;;;;;9.15;1.50;;;13.30;99.90;;;;;;4980891;28;20116;-76
2022/05/26 04:52:57;;;;;;;7.45;1.98;;;13.30;99.90;;;;;;4980827;28;20132;-76
2022/05/26 04:55:22;;;;;;;8.57;1.58;;;13.40;99.90;;;;;;4996833;28;20073;-75
2022/05/26 04:57:48;;;;;;;9.38;1.63;;;13.30;99.90;;;;;;4996752;28;20486;-76
2022/05/26 05:00:16;;;;;;;6.35;1.40;;;13.30;99.90;;;;;;4980283;28;20065;-76
2022/05/26 05:02:42;;;;;;;9.50;1.35;;;13.30;99.90;;;;;;4964566;28;20139;-76
2022/05/26 05:05:09;;;;;;;5.15;1.35;;;13.30;99.90;;;;;;4980861;28;20494;-77
2022/05/26 05:07:35;;;;;;;6.55;1.67;;;13.30;99.90;;;;;;4980518;28;20064;-76
2022/05/26 05:10:01;;;;;;;7.35;1.52;;;13.30;99.90;;;;;;4996470;28;20465;-76
2022/05/26 05:12:28;;;;;;;4.85;1.20;;;13.40;99.90;;;;;;4996763;28;20042;-76
2022/05/26 05:14:56;;;;;;;4.82;1.10;;;13.40;99.90;;;;;;4997419;28;20471;-76
2022/05/26 05:17:24;;;;;;;5.80;1.38;;;13.40;99.90;;;;;;4997633;28;20038;-76
2022/05/26 05:19:50;;;;;;;5.60;1.30;;;13.40;99.90;;;;;;4996476;28;20042;-76
2022/05/26 05:22:45;;;;;;;5.25;1.58;;;13.50;99.90;;;;;;4996032;28;20596;-76
2022/05/26 05:25:24;;;;;;;6.43;0.90;;;13.40;99.90;;;;;;4994255;28;20494;-76
2022/05/26 05:27:54;;;;;;;7.30;1.35;;;13.40;99.90;;;;;;4996493;28;20121;-77
2022/05/26 05:30:36;;;;;;;5.60;1.63;;;13.60;99.90;;;;;;4997355;28;20039;-80
2022/05/26 05:33:10;;;;;;;4.93;1.08;;;13.50;99.90;;;;;;4997245;28;20042;-76
2022/05/26 05:35:45;;;;;;;5.90;0.90;;;13.50;99.90;;;;;;4980376;28;20133;-76
2022/05/26 05:38:11;;;;;;;7.20;0.93;;;13.50;99.90;;;;;;4997054;28;20076;-76
2022/05/26 05:40:37;;;;;;;6.55;0.82;;;13.50;99.90;;;;;;4979806;28;20046;-76
2022/05/26 05:43:03;;;;;;;4.82;0.80;;;13.60;99.90;;;;;;4964644;28;20105;-77
2022/05/26 05:45:29;;;;;;;4.03;0.73;;;13.60;99.90;;;;;;4996177;28;20064;-77
2022/05/26 05:47:55;;;;;;;4.30;0.88;;;13.60;99.90;;;;;;4996115;28;20057;-77
2022/05/26 05:50:21;;;;;;;2.75;0.70;;;13.60;99.90;;;;;;4996004;28;20375;-77
2022/05/26 05:52:46;;;;;;;5.63;0.70;;;13.60;99.90;;;;;;4995983;28;20088;-77
2022/05/26 05:55:12;;;;;;;4.38;0.70;;;13.70;99.90;;;;;;4995767;28;20474;-77
2022/05/26 05:57:38;;;;;;;5.43;0.70;;;13.70;99.90;;;;;;4963626;28;20102;-77
2022/05/26 06:00:05;;;;;;;4.40;0.63;;;13.70;99.90;;;;;;4995761;28;20395;-76
2022/05/26 06:02:31;;;;;;;5.82;0.70;;;13.80;99.90;;;;;;4995482;28;20069;-77
2022/05/26 06:04:57;;;;;;;2.33;0.60;;;13.80;99.90;;;;;;4980365;28;20050;-77
2022/05/26 06:07:23;;;;;;;2.83;0.68;;;13.80;99.90;;;;;;4979808;28;20410;-76
2022/05/26 06:09:50;;;;;;;3.40;0.68;;;13.80;99.90;;;;;;4995136;28;20050;-81
2022/05/26 06:12:17;;;;;;;3.28;0.57;;;13.80;99.90;;;;;;4995499;28;20054;-79
2022/05/26 06:14:43;;;;;;;3.72;0.60;;;13.90;99.90;;;;;;4964120;28;20086;-78
2022/05/26 06:17:10;;;;;;;2.13;0.50;;;13.90;99.90;;;;;;4964267;28;20050;-78
2022/05/26 06:19:38;;;;;;;2.83;0.60;;;13.90;99.90;;;;;;4978989;28;20594;-78
2022/05/26 06:22:19;;;;;;;4.00;0.70;;;14.00;99.90;;;;;;4995330;28;20058;-79
2022/05/26 06:24:45;;;;;;;2.65;0.52;;;14.00;99.90;;;;;;4979287;28;20483;-78
2022/05/26 06:29:58;;;;;;;3.47;0.80;;;14.10;99.90;;;;;;4995368;28;20057;-79
2022/05/26 06:37:55;;;;;;;3.70;0.50;;;14.10;99.90;;;;;;4995621;28;20058;-80
2022/05/26 06:40:21;;;;;;;2.08;0.40;;;14.20;99.90;;;;;;4978913;28;20046;-78
2022/05/26 06:42:47;;;;;;;4.50;0.50;;;14.20;99.90;;;;;;4978941;28;20050;-78
2022/05/26 06:45:20;;;;;;;3.17;0.50;;;14.30;99.90;;;;;;4995337;28;20146;-77
2022/05/26 06:47:46;;;;;;;2.47;0.40;;;14.30;99.90;;;;;;4979687;28;20368;-78
2022/05/26 06:50:12;;;;;;;3.10;0.50;;;14.30;99.90;;;;;;4978811;28;20042;-78
2022/05/26 06:52:37;;;;;;;2.25;0.57;;;14.40;99.90;;;;;;4978717;28;20061;-78
2022/05/26 06:55:06;;;;;;;2.70;0.60;;;14.50;99.90;;;;;;4978680;28;20042;-82
2022/05/26 06:57:32;;;;;;;2.25;0.50;;;14.50;99.90;;;;;;4995148;28;20058;-77
2022/05/26 06:59:57;;;;;;;1.88;0.60;;;14.60;99.90;;;;;;4995658;28;20129;-76
2022/05/26 07:02:24;;;;;;;2.75;0.50;;;14.60;99.90;;;;;;4978524;28;20150;-78
2022/05/26 07:04:50;;;;;;;2.47;0.70;;;14.80;99.90;;;;;;4961735;28;20054;-78
2022/05/26 07:07:16;;;;;;;2.30;0.73;;;14.90;99.90;;;;;;4978001;28;20134;-77
2022/05/26 07:09:42;;;;;;;1.70;0.50;;;15.00;99.90;;;;;;4995510;28;20116;-77
2022/05/26 07:12:09;;;;;;;2.92;0.60;;;15.00;99.90;;;;;;4994751;28;20101;-78
2022/05/26 07:14:35;;;;;;;3.25;0.50;;;15.00;99.90;;;;;;4995440;28;20073;-80
2022/05/26 07:17:01;;;;;;;3.15;0.70;;;15.00;99.90;;;;;;4978135;28;20050;-78
2022/05/26 07:19:27;;;;;;;3.78;0.50;;;15.00;99.90;;;;;;4978326;28;20356;-78
2022/05/26 07:21:53;;;;;;;4.88;0.60;;;15.10;99.90;;;;;;4995139;28;20104;-83
2022/05/26 07:24:20;;;;;;;4.47;1.10;;;15.10;99.90;;;;;;4994374;28;20081;-83
2022/05/26 07:26:47;;;;;;;4.60;0.50;;;15.20;99.90;;;;;;4978116;28;20054;-79
2022/05/26 07:29:14;;;;;;;2.58;0.50;;;15.20;99.90;;;;;;4995148;28;20430;-78
2022/05/26 07:31:40;;;;;;;3.03;0.60;;;15.20;99.90;;;;;;4978163;28;20053;-78
2022/05/26 07:34:07;;;;;;;1.42;0.40;;;15.20;99.90;;;;;;4994132;28;20136;-78
2022/05/26 07:42:16;;;;;;;3.95;0.70;;;15.20;99.90;;;;;;4994267;28;20375;-78
2022/05/26 07:44:45;;;;;;;1.27;0.50;;;15.30;99.90;;;;;;4994773;28;20042;-90
2022/05/26 07:47:11;;;;;;;1.88;0.52;;;15.30;99.90;;;;;;4993975;28;20483;-83
2022/05/26 07:49:42;;;;;;;3.50;0.50;;;15.30;99.90;;;;;;4994256;28;20046;-82
2022/05/26 07:52:11;;;;;;;2.13;0.40;;;15.30;99.90;;;;;;4994300;28;20092;-80
2022/05/26 07:54:38;;;;;;;4.13;0.50;;;15.30;99.90;;;;;;4993988;28;20038;-81
2022/05/26 07:57:04;;;;;;;4.03;0.77;;;15.40;99.90;;;;;;4980566;28;20077;-76
2022/05/26 07:59:30;;;;;;;1.50;0.40;;;15.50;99.90;;;;;;4996270;28;20043;-80
2022/05/26 08:01:56;;;;;;;5.78;0.75;;;15.50;99.90;;;;;;4978559;28;20137;-76
2022/05/26 08:04:22;;;;;;;3.58;0.50;;;15.60;99.90;;;;;;4993962;28;20386;-77
2022/05/26 08:06:48;;;;;;;1.65;0.40;;;15.60;99.90;;;;;;4977761;28;20061;-80
2022/05/26 08:09:15;;;;;;;2.70;0.57;;;15.60;99.90;;;;;;4993678;28;20391;-79
2022/05/26 08:11:41;;;;;;;3.08;0.60;;;15.60;99.90;;;;;;4977678;28;20156;-81
2022/05/26 08:14:07;;;;;;;4.68;0.50;;;15.70;99.90;;;;;;4961026;28;20506;-83
2022/05/26 08:16:34;;;;;;;1.20;0.50;;;15.70;99.90;;;;;;4977505;28;20151;-83
2022/05/26 08:19:00;;;;;;;1.50;0.32;;;15.70;99.90;;;;;;4977879;28;20049;-81
2022/05/26 08:21:25;;;;;;;3.50;0.40;;;15.70;99.90;;;;;;4977127;28;20078;-78
2022/05/26 08:23:53;;;;;;;2.50;0.40;;;15.70;99.90;;;;;;4960886;28;20580;-80
2022/05/26 08:26:19;;;;;;;3.47;0.57;;;15.70;99.90;;;;;;4978387;28;20046;-80
2022/05/26 08:28:46;;;;;;;3.97;0.50;;;15.80;99.90;;;;;;4993460;28;20064;-80
2022/05/26 08:31:13;;;;;;;1.73;0.30;;;15.80;99.90;;;;;;4993718;28;20133;-87
2022/05/26 08:33:40;;;;;;;2.60;0.50;;;15.90;99.90;;;;;;4961710;28;20054;-84
2022/05/26 08:36:12;;;;;;;2.78;0.40;;;16.00;99.90;;;;;;4977312;28;20549;-78
2022/05/26 08:38:38;;;;;;;3.43;0.60;;;16.10;99.90;;;;;;4977953;28;20101;-81
2022/05/26 08:41:06;;;;;;;2.60;0.50;;;16.10;99.90;;;;;;4993843;28;20309;-84
2022/05/26 08:43:51;;;;;;;3.33;0.50;;;16.10;99.90;;;;;;4993301;28;20049;-77
2022/05/26 08:46:19;;;;;;;1.17;0.43;;;16.20;99.90;;;;;;4993572;28;20053;-76
2022/05/26 08:48:55;;;;;;;1.25;0.28;;;16.30;99.90;;;;;;4977916;28;20101;-82
2022/05/26 08:51:47;;;;;;;3.20;0.55;;;16.30;99.90;;;;;;4993933;28;20368;-81
2022/05/26 08:54:33;;;;;;;2.25;0.47;;;16.40;99.90;;;;;;4974903;28;20133;-83
2022/05/26 08:57:00;;;;;;;3.05;0.38;;;16.30;99.90;;;;;;4977459;28;20109;-78
2022/05/26 08:59:33;;;;;;;3.75;0.65;;;16.30;99.90;;;;;;4960932;28;20083;-85
2022/05/26 09:02:01;;;;;;;2.45;0.40;;;16.20;99.90;;;;;;4977246;28;20471;-83
2022/05/26 09:04:28;;;;;;;3.15;0.82;;;16.20;99.90;;;;;;4993402;28;20391;-81
2022/05/26 09:12:56;;;;;;;1.00;0.30;;;16.40;99.90;;;;;;4993313;28;20490;-84
2022/05/26 09:15:22;;;;;;;2.72;0.50;;;16.70;99.90;;;;;;4993027;28;20046;-78
2022/05/26 09:17:48;;;;;;;2.05;0.50;;;16.50;99.90;;;;;;4993844;28;20054;-85
2022/05/26 09:20:36;;;;;;;1.55;0.30;;;16.50;99.90;;;;;;4977171;28;20046;-80
2022/05/26 09:23:23;;;;;;;2.88;0.45;;;16.70;99.90;;;;;;4993939;28;20054;-81
2022/05/26 09:25:53;;;;;;;4.25;0.38;;;16.80;99.90;;;;;;4977296;28;20054;-81
2022/05/26 09:28:33;;;;;;;2.22;0.20;;;16.80;99.90;;;;;;4979850;28;20050;-79
2022/05/26 09:31:19;;;;;;;3.20;0.30;;;16.90;99.90;;;;;;4981508;28;20107;-79
2022/05/26 09:33:58;;;;;;;1.55;0.20;;;16.90;99.90;;;;;;4996496;28;20050;-84
2022/05/26 09:36:28;;;;;;;3.22;0.47;;;16.90;99.90;;;;;;4996164;28;20526;-82
2022/05/26 09:38:54;;;;;;;2.40;0.40;;;17.00;99.90;;;;;;4979940;28;20050;-88
2022/05/26 09:41:20;;;;;;;1.42;0.30;;;16.90;99.90;;;;;;4980088;28;20046;-81
2022/05/26 09:43:55;;;;;;;3.78;0.32;;;16.80;99.90;;;;;;4996928;28;20132;-82
2022/05/26 09:46:26;;;;;;;0.80;0.30;;;16.80;99.90;;;;;;4980701;28;20065;-79
2022/05/26 09:48:58;;;;;;;3.10;0.40;;;16.80;99.90;;;;;;4980347;28;20178;-80
2022/05/26 09:51:27;;;;;;;3.33;0.75;;;16.80;99.90;;;;;;4980064;28;20153;-76
2022/05/26 09:53:55;;;;;;;3.08;0.40;;;16.80;99.90;;;;;;4980039;28;20499;-80
2022/05/26 09:56:40;;;;;;;1.40;0.30;;;16.90;99.90;;;;;;4980789;28;20057;-79
2022/05/26 09:59:29;;;;;;;2.53;0.40;;;17.00;99.90;;;;;;4996982;28;20050;-80
2022/05/26 10:02:12;;;;;;;1.83;0.40;;;17.20;99.90;;;;;;4995750;28;20054;-76
2022/05/26 10:04:57;;;;;;;1.98;0.20;;;17.30;99.90;;;;;;4996912;28;20069;-86
2022/05/26 10:07:55;;;;;;;2.30;0.30;;;17.40;99.90;;;;;;4996121;28;20092;-78
2022/05/26 10:10:35;;;;;;;0.43;0.20;;;17.40;99.90;;;;;;4995894;28;20553;-80
2022/05/26 10:13:10;;;;;;;0.88;0.20;;;17.50;99.90;;;;;;4979986;28;20054;-76
2022/05/26 10:15:48;;;;;;;1.02;0.17;;;17.50;99.90;;;;;;4996445;28;20054;-77
2022/05/26 10:18:26;;;;;;;0.45;0.22;;;17.60;99.90;;;;;;4997707;28;20081;-82
2022/05/26 10:21:07;;;;;;;1.30;0.25;;;17.70;99.90;;;;;;4998251;28;20122;-84
2022/05/26 10:23:54;;;;;;;1.85;0.20;;;17.60;99.90;;;;;;4996784;28;20042;-80
2022/05/26 10:26:42;;;;;;;1.10;0.20;;;17.60;99.90;;;;;;4995714;28;20057;-75
2022/05/26 10:29:25;;;;;;;0.60;0.28;;;17.60;99.90;;;;;;4995791;28;20130;-79
2022/05/26 10:32:03;;;;;;;2.45;0.30;;;17.60;99.90;;;;;;4980473;28;20110;-76
2022/05/26 10:34:52;;;;;;;3.00;0.40;;;17.70;99.90;;;;;;4997847;28;20356;-78
2022/05/26 10:37:27;;;;;;;2.20;0.32;;;17.80;99.90;;;;;;4987464;28;20403;-77
2022/05/26 10:40:16;;;;;;;1.95;0.30;;;17.90;99.90;;;;;;4982111;28;20053;-73
2022/05/26 10:43:04;;;;;;;1.27;0.20;;;18.00;99.90;;;;;;4998433;28;20042;-77
2022/05/26 10:45:39;;;;;;;1.77;0.50;;;18.10;99.90;;;;;;4998414;28;20133;-75
2022/05/26 10:48:14;;;;;;;2.00;0.28;;;18.20;99.90;;;;;;4979938;28;20435;-75
2022/05/26 10:50:55;;;;;;;2.25;0.32;;;18.10;99.90;;;;;;4996249;28;20057;-76
2022/05/26 10:53:36;;;;;;;5.13;0.50;;;18.00;99.90;;;;;;4995453;28;20054;-75
2022/05/26 10:56:18;;;;;;;1.27;0.30;;;17.90;99.90;;;;;;4994804;28;20046;-73
2022/05/26 10:58:47;;;;;;;0.93;0.30;;;18.00;99.90;;;;;;4995306;28;20053;-84
2022/05/26 11:01:45;;;;;;;2.05;0.30;;;17.90;99.90;;;;;;4978485;28;20058;-76
2022/05/26 11:04:29;;;;;;;2.67;0.57;;;18.00;99.90;;;;;;4995769;28;20383;-76
2022/05/26 11:07:03;;;;;;;1.33;0.35;;;18.10;99.90;;;;;;4979004;28;20085;-76
2022/05/26 11:09:51;;;;;;;2.20;0.43;;;18.10;99.90;;;;;;4995511;28;20081;-75
2022/05/26 11:12:45;;;;;;;1.60;0.43;;;18.00;99.90;;;;;;4996088;28;20054;-82
2022/05/26 11:18:26;;;;;;;1.27;1.17;;;18.00;99.90;;;;;;4994267;28;20065;-78
2022/05/26 11:20:54;;;;;;;3.38;0.40;;;18.10;99.90;;;;;;4994569;28;20502;-79
2022/05/26 11:23:31;;;;;;;2.25;0.40;;;18.10;99.90;;;;;;4995102;28;20046;-79
2022/05/26 11:26:00;;;;;;;2.33;0.40;;;18.00;99.90;;;;;;4995165;28;20079;-80
2022/05/26 11:28:41;;;;;;;3.63;0.40;;;18.00;99.90;;;;;;4994067;28;20057;-78
2022/05/26 11:37:27;;;;;;;3.05;0.50;;;18.20;99.90;;;;;;4993579;28;20054;-76
2022/05/26 11:40:06;;;;;;;3.08;0.30;;;18.30;99.90;;;;;;4993410;28;20054;-79
2022/05/26 11:42:49;;;;;;;0.80;0.30;;;18.40;99.90;;;;;;4978109;28;20112;-77
2022/05/26 11:45:19;;;;;;;1.55;0.30;;;18.50;99.90;;;;;;4994888;28;20088;-85
2022/05/26 11:48:04;;;;;;;2.45;0.40;;;18.60;99.90;;;;;;4979132;28;20108;-78
2022/05/26 11:50:36;;;;;;;1.13;0.38;;;18.60;99.90;;;;;;4992621;28;20057;-74
2022/05/26 11:53:40;;;;;;;3.60;0.40;;;18.50;99.90;;;;;;4976727;28;20113;-78
2022/05/26 11:56:42;;;;;;;1.10;0.40;;;18.50;99.90;;;;;;4972368;28;20069;-76
2022/05/26 11:59:31;;;;;;;2.97;0.40;;;18.50;99.90;;;;;;4993156;28;20055;-76
2022/05/26 12:02:00;;;;;;;2.03;0.57;;;18.60;99.90;;;;;;4993489;28;20046;-81
2022/05/26 12:04:42;;;;;;;3.80;0.60;;;18.70;99.90;;;;;;4993253;28;20054;-80
2022/05/26 12:07:14;;;;;;;1.57;0.47;;;18.70;99.90;;;;;;4992947;28;20047;-82
2022/05/26 12:09:49;;;;;;;2.35;0.60;;;18.60;99.90;;;;;;4993330;28;20161;-82
2022/05/26 12:12:17;;;;;;;1.55;0.50;;;18.50;99.90;;;;;;4992561;28;20046;-72
2022/05/26 12:14:46;;;;;;;3.85;0.60;;;18.40;99.90;;;;;;4977920;28;20057;-75
2022/05/26 12:17:30;;;;;;;2.20;0.50;;;18.40;99.90;;;;;;4976508;28;20043;-78
2022/05/26 12:20:12;;;;;;;1.70;0.40;;;18.50;99.90;;;;;;4992684;28;20057;-76
2022/05/26 12:22:47;;;;;;;2.28;0.50;;;18.50;99.90;;;;;;4992892;28;20061;-77
2022/05/26 12:25:35;;;;;;;2.97;0.50;;;18.50;99.90;;;;;;4992543;28;20100;-76
2022/05/26 12:28:15;;;;;;;1.55;0.50;;;18.40;99.90;;;;;;4992362;28;20052;-74
2022/05/26 12:30:46;;;;;;;1.38;0.43;;;18.20;99.90;;;;;;4992632;28;20077;-78
2022/05/26 12:33:18;;;;;;;2.40;0.50;;;18.10;99.90;;;;;;4976127;28;20048;-74
2022/05/26 12:36:10;;;;;;;3.45;0.50;;;18.00;99.90;;;;;;4976107;28;20108;-74
2022/05/26 12:39:14;;;;;;;2.17;0.50;;;17.90;99.90;;;;;;4994208;28;20080;-74
2022/05/26 12:42:22;;;;;;;3.72;0.57;;;18.00;99.90;;;;;;4992467;28;20051;-80
2022/05/26 12:45:13;;;;;;;2.10;0.38;;;18.10;99.90;;;;;;4960467;28;20058;-76
2022/05/26 12:48:16;;;;;;;2.67;0.50;;;18.10;99.90;;;;;;4992375;28;20100;-77
2022/05/26 12:50:43;;;;;;;4.07;0.63;;;18.10;99.90;;;;;;4974500;28;20062;-75
2022/05/26 12:53:39;;;;;;;2.33;0.52;;;18.00;99.90;;;;;;4975846;28;20074;-76
2022/05/26 12:56:14;;;;;;;2.28;0.57;;;18.00;99.90;;;;;;4968294;28;20054;-73
2022/05/26 12:58:51;;;;;;;2.85;0.40;;;17.90;99.90;;;;;;4993508;28;20121;-81
2022/05/26 13:01:22;;;;;;;2.70;0.40;;;17.90;99.90;;;;;;4976768;28;20066;-76
2022/05/26 13:04:25;;;;;;;5.15;0.50;;;17.90;99.90;;;;;;4996115;28;20054;-79
2022/05/26 13:06:54;;;;;;;2.75;0.60;;;17.90;99.90;;;;;;4978805;28;20561;-80
2022/05/26 13:09:26;;;;;;;1.30;0.30;;;18.00;99.90;;;;;;4995954;28;20054;-77
2022/05/26 13:11:56;;;;;;;2.08;0.43;;;17.90;99.90;;;;;;4996766;28;20051;-75
2022/05/26 13:14:49;;;;;;;2.58;0.50;;;17.40;99.90;;;;;;4996032;28;20042;-76
2022/05/26 13:17:16;;;;;;;;;;;17.80;99.90;;;;;;4996667;28;20101;-76
2022/05/26 13:19:47;;;;;;;2.65;0.40;;;17.80;99.90;;;;;;4979857;28;19975;-74
2022/05/26 13:22:21;;;;;;;2.05;0.50;;;17.70;99.90;;;;;;4997526;28;20348;-78
2022/05/26 13:24:57;;;;;;;1.88;0.60;;;17.60;99.90;;;;;;4997041;28;20046;-80
2022/05/26 13:27:26;;;;;;;2.05;0.60;;;17.60;99.90;;;;;;4979748;28;20050;-77
2022/05/26 13:33:07;;;;;;;1.90;0.50;;;17.70;99.90;;;;;;4995867;28;20066;-79
2022/05/26 13:35:24;;;;;;;2.65;0.50;;;17.70;99.90;;;;;;4982609;28;20109;-78
2022/05/26 13:37:50;;;;;;;4.13;0.60;;;17.60;99.90;;;;;;4978703;28;20475;-79
2022/05/26 13:40:17;;;;;;;3.67;0.70;;;17.50;99.90;;;;;;4963671;28;20096;-81
2022/05/26 13:42:49;;;;;;;2.85;0.52;;;17.40;99.90;;;;;;4995255;28;20117;-79
2022/05/26 13:45:36;;;;;;;3.22;0.60;;;17.40;99.90;;;;;;4980545;28;20050;-81
2022/05/26 13:48:29;;;;;;;2.45;0.60;;;17.40;99.90;;;;;;5000696;28;20042;-85
2022/05/26 13:51:27;;;;;;;5.55;0.70;;;17.30;99.90;;;;;;4980026;28;20125;-77
2022/05/26 13:54:12;;;;;;;3.70;0.60;;;17.30;99.90;;;;;;4996597;28;20054;-78
2022/05/26 13:56:38;;;;;;;3.03;0.50;;;17.30;99.90;;;;;;4980186;28;20042;-76
2022/05/26 13:59:10;;;;;;;2.42;0.57;;;17.30;99.90;;;;;;4982060;28;20062;-80
2022/05/26 14:01:40;;;;;;;4.07;0.60;;;17.30;99.90;;;;;;4997198;28;20050;-75
2022/05/26 14:04:19;;;;;;;1.80;0.50;;;17.30;99.90;;;;;;4980774;28;20061;-75
2022/05/26 14:06:44;;;;;;;2.75;0.57;;;17.30;99.90;;;;;;4980816;28;20057;-85
2022/05/26 14:09:30;;;;;;;4.65;0.70;;;17.30;99.90;;;;;;4997873;28;20375;-80
2022/05/26 14:12:21;;;;;;;4.40;0.60;;;17.40;99.90;;;;;;4996457;28;20086;-73
2022/05/26 14:14:47;;;;;;;5.43;0.70;;;17.40;99.90;;;;;;4996251;28;20050;-74